sensor_id;sensor_type;location;lat;lon;timestamp;temperature;humidity
12957;DHT22;6543;48.836;10.092;2022-09-09T00:01:39;12.40;99.90
12957;DHT22;6543;48.836;10.092;2022-09-09T00:04:13;12.30;99.90
12957;DHT22;6543;48.836;10.092;2022-09-09T00:06:45;12.40;99.90
12957;DHT22;6543;48.836;10.092;2022-09-09T00:09:16;12.40;99.90
12957;DHT22;6543;48.836;10.092;2022-09-09T00:11:47;12.50;99.90
12957;DHT22;6543;48.836;10.092;2022-09-09T00:14:25;12.50;99.90
12957;DHT22;6543;48.836;10.092;2022-09-09T00:16:56;12.30;99.90
12957;DHT22;6543;48.836;10.092;2022-09-09T00:19:33;12.30;99.90
12957;DHT22;6543;48.836;10.092;2022-09-09T00:22:14;12.30;99.90
12957;DHT22;6543;48.836;10.092;2022-09-09T00:24:44;12.20;99.90
12957;DHT22;6543;48.836;10.092;2022-09-09T00:27:19;12.20;99.90
12957;DHT22;6543;48.836;10.092;2022-09-09T00:29:53;12.20;99.90
12957;DHT22;6543;48.836;10.092;2022-09-09T00:32:21;12.30;99.90
12957;DHT22;6543;48.836;10.092;2022-09-09T00:34:51;12.20;99.90
12957;DHT22;6543;48.836;10.092;2022-09-09T00:37:19;12.20;99.90
12957;DHT22;6543;48.836;10.092;2022-09-09T00:39:48;12.20;99.90
12957;DHT22;6543;48.836;10.092;2022-09-09T00:42:20;12.10;99.90
12957;DHT22;6543;48.836;10.092;2022-09-09T00:44:56;12.10;99.90
12957;DHT22;6543;48.836;10.092;2022-09-09T00:47:39;12.10;99.90
12957;DHT22;6543;48.836;10.092;2022-09-09T00:50:25;12.10;99.90
12957;DHT22;6543;48.836;10.092;2022-09-09T00:53:02;12.10;99.90
12957;DHT22;6543;48.836;10.092;2022-09-09T00:55:37;12.20;99.90
12957;DHT22;6543;48.836;10.092;2022-09-09T00:58:08;12.30;99.90
12957;DHT22;6543;48.836;10.092;2022-09-09T01:00:42;12.30;99.90
12957;DHT22;6543;48.836;10.092;2022-09-09T01:03:20;12.30;99.90
12957;DHT22;6543;48.836;10.092;2022-09-09T01:05:55;12.30;99.90
12957;DHT22;6543;48.836;10.092;2022-09-09T01:11:27;12.30;99.90
12957;DHT22;6543;48.836;10.092;2022-09-09T01:16:49;12.40;99.90
12957;DHT22;6543;48.836;10.092;2022-09-09T01:19:22;12.40;99.90
12957;DHT22;6543;48.836;10.092;2022-09-09T01:21:56;12.40;99.90
12957;DHT22;6543;48.836;10.092;2022-09-09T01:24:27;12.40;99.90
12957;DHT22;6543;48.836;10.092;2022-09-09T01:26:59;12.40;99.90
12957;DHT22;6543;48.836;10.092;2022-09-09T01:29:27;12.40;99.90
12957;DHT22;6543;48.836;10.092;2022-09-09T01:31:55;12.50;99.90
12957;DHT22;6543;48.836;10.092;2022-09-09T01:34:24;12.50;99.90
12957;DHT22;6543;48.836;10.092;2022-09-09T01:36:56;12.60;99.90
12957;DHT22;6543;48.836;10.092;2022-09-09T01:39:25;12.70;99.90
12957;DHT22;6543;48.836;10.092;2022-09-09T01:41:53;12.70;99.90
12957;DHT22;6543;48.836;10.092;2022-09-09T01:44:23;12.80;99.90
12957;DHT22;6543;48.836;10.092;2022-09-09T01:46:50;12.80;99.90
12957;DHT22;6543;48.836;10.092;2022-09-09T01:49:18;12.90;99.90
12957;DHT22;6543;48.836;10.092;2022-09-09T01:51:47;12.90;99.90
12957;DHT22;6543;48.836;10.092;2022-09-09T01:54:15;12.90;99.90
12957;DHT22;6543;48.836;10.092;2022-09-09T01:56:50;12.90;99.90
12957;DHT22;6543;48.836;10.092;2022-09-09T01:59:37;12.90;99.90
12957;DHT22;6543;48.836;10.092;2022-09-09T02:02:10;13.30;99.90
12957;DHT22;6543;48.836;10.092;2022-09-09T02:04:40;12.80;99.90
12957;DHT22;6543;48.836;10.092;2022-09-09T02:07:23;12.80;99.90
12957;DHT22;6543;48.836;10.092;2022-09-09T02:09:58;12.70;99.90
12957;DHT22;6543;48.836;10.092;2022-09-09T02:12:30;12.70;99.90
12957;DHT22;6543;48.836;10.092;2022-09-09T02:15:03;12.70;99.90
12957;DHT22;6543;48.836;10.092;2022-09-09T02:17:33;12.70;99.90
12957;DHT22;6543;48.836;10.092;2022-09-09T02:20:06;12.70;99.90
12957;DHT22;6543;48.836;10.092;2022-09-09T02:22:35;12.60;99.90
12957;DHT22;6543;48.836;10.092;2022-09-09T02:25:07;12.50;99.90
12957;DHT22;6543;48.836;10.092;2022-09-09T02:27:35;12.60;99.90
12957;DHT22;6543;48.836;10.092;2022-09-09T02:30:04;12.60;99.90
12957;DHT22;6543;48.836;10.092;2022-09-09T02:32:33;12.60;99.90
12957;DHT22;6543;48.836;10.092;2022-09-09T02:35:05;12.60;99.90
12957;DHT22;6543;48.836;10.092;2022-09-09T02:37:36;12.60;99.90
12957;DHT22;6543;48.836;10.092;2022-09-09T02:40:04;12.60;99.90
12957;DHT22;6543;48.836;10.092;2022-09-09T02:42:31;12.50;99.90
12957;DHT22;6543;48.836;10.092;2022-09-09T02:44:58;12.60;99.90
12957;DHT22;6543;48.836;10.092;2022-09-09T02:47:30;12.50;99.90
12957;DHT22;6543;48.836;10.092;2022-09-09T02:50:06;12.40;99.90
12957;DHT22;6543;48.836;10.092;2022-09-09T02:52:41;12.40;99.90
12957;DHT22;6543;48.836;10.092;2022-09-09T02:55:17;12.50;99.90
12957;DHT22;6543;48.836;10.092;2022-09-09T02:57:47;12.50;99.90
12957;DHT22;6543;48.836;10.092;2022-09-09T03:00:15;12.40;99.90
12957;DHT22;6543;48.836;10.092;2022-09-09T03:02:43;12.50;99.90
12957;DHT22;6543;48.836;10.092;2022-09-09T03:05:10;12.40;99.90
12957;DHT22;6543;48.836;10.092;2022-09-09T03:07:38;12.40;99.90
12957;DHT22;6543;48.836;10.092;2022-09-09T03:10:06;12.30;99.90
12957;DHT22;6543;48.836;10.092;2022-09-09T03:12:36;12.30;99.90
12957;DHT22;6543;48.836;10.092;2022-09-09T03:15:03;12.30;99.90
12957;DHT22;6543;48.836;10.092;2022-09-09T03:17:30;12.20;99.90
12957;DHT22;6543;48.836;10.092;2022-09-09T03:19:58;12.10;99.90
12957;DHT22;6543;48.836;10.092;2022-09-09T03:22:25;12.10;99.90
12957;DHT22;6543;48.836;10.092;2022-09-09T03:24:52;12.10;99.90
12957;DHT22;6543;48.836;10.092;2022-09-09T03:27:19;12.10;99.90
12957;DHT22;6543;48.836;10.092;2022-09-09T03:29:46;12.10;99.90
12957;DHT22;6543;48.836;10.092;2022-09-09T03:32:15;12.00;99.90
12957;DHT22;6543;48.836;10.092;2022-09-09T03:34:43;12.00;99.90
12957;DHT22;6543;48.836;10.092;2022-09-09T03:37:11;12.00;99.90
12957;DHT22;6543;48.836;10.092;2022-09-09T03:39:38;12.00;99.90
12957;DHT22;6543;48.836;10.092;2022-09-09T03:42:05;12.00;99.90
12957;DHT22;6543;48.836;10.092;2022-09-09T03:44:32;11.90;99.90
12957;DHT22;6543;48.836;10.092;2022-09-09T03:46:58;11.90;99.90
12957;DHT22;6543;48.836;10.092;2022-09-09T03:49:26;11.90;99.90
12957;DHT22;6543;48.836;10.092;2022-09-09T03:51:54;11.90;99.90
12957;DHT22;6543;48.836;10.092;2022-09-09T03:54:23;11.90;99.90
12957;DHT22;6543;48.836;10.092;2022-09-09T03:56:50;11.80;99.90
12957;DHT22;6543;48.836;10.092;2022-09-09T03:59:17;11.80;99.90
12957;DHT22;6543;48.836;10.092;2022-09-09T04:01:44;11.80;99.90
12957;DHT22;6543;48.836;10.092;2022-09-09T04:04:12;11.80;99.90
12957;DHT22;6543;48.836;10.092;2022-09-09T04:06:39;11.70;99.90
12957;DHT22;6543;48.836;10.092;2022-09-09T04:09:06;11.70;99.90
12957;DHT22;6543;48.836;10.092;2022-09-09T04:11:34;11.80;99.90
12957;DHT22;6543;48.836;10.092;2022-09-09T04:14:02;11.90;99.90
12957;DHT22;6543;48.836;10.092;2022-09-09T04:16:31;12.00;99.90
12957;DHT22;6543;48.836;10.092;2022-09-09T04:18:58;12.10;99.90
12957;DHT22;6543;48.836;10.092;2022-09-09T04:21:26;12.10;99.90
12957;DHT22;6543;48.836;10.092;2022-09-09T04:23:53;12.10;99.90
12957;DHT22;6543;48.836;10.092;2022-09-09T04:26:20;12.10;99.90
12957;DHT22;6543;48.836;10.092;2022-09-09T04:28:48;12.10;99.90
12957;DHT22;6543;48.836;10.092;2022-09-09T04:31:17;12.10;99.90
12957;DHT22;6543;48.836;10.092;2022-09-09T04:33:45;12.10;99.90
12957;DHT22;6543;48.836;10.092;2022-09-09T04:36:12;12.20;99.90
12957;DHT22;6543;48.836;10.092;2022-09-09T04:38:39;12.20;99.90
12957;DHT22;6543;48.836;10.092;2022-09-09T04:41:07;12.20;99.90
12957;DHT22;6543;48.836;10.092;2022-09-09T04:43:36;12.20;99.90
12957;DHT22;6543;48.836;10.092;2022-09-09T04:46:05;12.30;99.90
12957;DHT22;6543;48.836;10.092;2022-09-09T04:48:32;12.40;99.90
12957;DHT22;6543;48.836;10.092;2022-09-09T04:51:00;12.50;99.90
12957;DHT22;6543;48.836;10.092;2022-09-09T04:53:28;12.40;99.90
12957;DHT22;6543;48.836;10.092;2022-09-09T04:56:02;12.50;99.90
12957;DHT22;6543;48.836;10.092;2022-09-09T04:58:29;12.50;99.90
12957;DHT22;6543;48.836;10.092;2022-09-09T05:01:05;12.60;99.90
12957;DHT22;6543;48.836;10.092;2022-09-09T05:03:32;12.60;99.90
12957;DHT22;6543;48.836;10.092;2022-09-09T05:06:03;12.60;99.90
12957;DHT22;6543;48.836;10.092;2022-09-09T05:08:30;12.60;99.90
12957;DHT22;6543;48.836;10.092;2022-09-09T05:10:57;12.60;99.90
12957;DHT22;6543;48.836;10.092;2022-09-09T05:13:25;12.70;99.90
12957;DHT22;6543;48.836;10.092;2022-09-09T05:15:53;12.80;99.90
12957;DHT22;6543;48.836;10.092;2022-09-09T05:18:21;12.80;99.90
12957;DHT22;6543;48.836;10.092;2022-09-09T05:20:48;12.80;99.90
12957;DHT22;6543;48.836;10.092;2022-09-09T05:23:16;12.80;99.90
12957;DHT22;6543;48.836;10.092;2022-09-09T05:25:43;12.80;99.90
12957;DHT22;6543;48.836;10.092;2022-09-09T05:28:12;12.80;99.90
12957;DHT22;6543;48.836;10.092;2022-09-09T05:30:39;12.90;99.90
12957;DHT22;6543;48.836;10.092;2022-09-09T05:33:05;12.90;99.90
12957;DHT22;6543;48.836;10.092;2022-09-09T05:35:36;13.00;99.90
12957;DHT22;6543;48.836;10.092;2022-09-09T05:38:03;13.00;99.90
12957;DHT22;6543;48.836;10.092;2022-09-09T05:40:30;13.00;99.90
12957;DHT22;6543;48.836;10.092;2022-09-09T05:43:00;13.00;99.90
12957;DHT22;6543;48.836;10.092;2022-09-09T05:45:27;13.00;99.90
12957;DHT22;6543;48.836;10.092;2022-09-09T05:47:54;13.10;99.90
12957;DHT22;6543;48.836;10.092;2022-09-09T05:50:20;13.10;99.90
12957;DHT22;6543;48.836;10.092;2022-09-09T05:52:49;13.20;99.90
12957;DHT22;6543;48.836;10.092;2022-09-09T05:55:15;13.30;99.90
12957;DHT22;6543;48.836;10.092;2022-09-09T05:57:48;13.40;99.90
12957;DHT22;6543;48.836;10.092;2022-09-09T06:00:15;13.50;99.90
12957;DHT22;6543;48.836;10.092;2022-09-09T06:02:42;13.60;99.90
12957;DHT22;6543;48.836;10.092;2022-09-09T06:05:09;13.70;99.90
12957;DHT22;6543;48.836;10.092;2022-09-09T06:07:37;13.80;99.90
12957;DHT22;6543;48.836;10.092;2022-09-09T06:10:09;13.90;99.90
12957;DHT22;6543;48.836;10.092;2022-09-09T06:12:36;14.00;99.90
12957;DHT22;6543;48.836;10.092;2022-09-09T06:15:03;14.10;99.90
12957;DHT22;6543;48.836;10.092;2022-09-09T06:17:30;14.20;99.90
12957;DHT22;6543;48.836;10.092;2022-09-09T06:19:57;14.20;99.90
12957;DHT22;6543;48.836;10.092;2022-09-09T06:22:24;14.40;99.90
12957;DHT22;6543;48.836;10.092;2022-09-09T06:24:51;14.50;99.90
12957;DHT22;6543;48.836;10.092;2022-09-09T06:27:20;14.70;99.90
12957;DHT22;6543;48.836;10.092;2022-09-09T06:29:47;14.70;99.90
12957;DHT22;6543;48.836;10.092;2022-09-09T06:32:14;14.80;99.90
12957;DHT22;6543;48.836;10.092;2022-09-09T06:34:41;14.90;99.90
12957;DHT22;6543;48.836;10.092;2022-09-09T06:37:07;15.00;99.90
12957;DHT22;6543;48.836;10.092;2022-09-09T06:39:34;15.10;99.90
12957;DHT22;6543;48.836;10.092;2022-09-09T06:42:01;15.20;99.90
12957;DHT22;6543;48.836;10.092;2022-09-09T06:44:30;15.50;99.90
12957;DHT22;6543;48.836;10.092;2022-09-09T06:46:59;15.70;99.90
12957;DHT22;6543;48.836;10.092;2022-09-09T06:49:26;15.90;99.90
12957;DHT22;6543;48.836;10.092;2022-09-09T06:51:52;16.20;99.90
12957;DHT22;6543;48.836;10.092;2022-09-09T06:54:20;16.30;99.90
12957;DHT22;6543;48.836;10.092;2022-09-09T06:56:47;16.50;99.90
12957;DHT22;6543;48.836;10.092;2022-09-09T06:59:15;16.70;99.90
12957;DHT22;6543;48.836;10.092;2022-09-09T07:01:43;16.90;99.90
12957;DHT22;6543;48.836;10.092;2022-09-09T07:04:11;17.10;99.90
12957;DHT22;6543;48.836;10.092;2022-09-09T07:06:40;17.30;99.90
12957;DHT22;6543;48.836;10.092;2022-09-09T07:09:10;17.60;99.90
12957;DHT22;6543;48.836;10.092;2022-09-09T07:11:40;17.70;99.90
12957;DHT22;6543;48.836;10.092;2022-09-09T07:14:08;17.80;99.90
12957;DHT22;6543;48.836;10.092;2022-09-09T07:16:35;17.70;99.90
12957;DHT22;6543;48.836;10.092;2022-09-09T07:19:04;17.70;99.90
12957;DHT22;6543;48.836;10.092;2022-09-09T07:21:32;17.80;99.90
12957;DHT22;6543;48.836;10.092;2022-09-09T07:24:00;18.00;99.90
12957;DHT22;6543;48.836;10.092;2022-09-09T07:26:29;18.10;99.90
12957;DHT22;6543;48.836;10.092;2022-09-09T07:28:56;18.20;99.90
12957;DHT22;6543;48.836;10.092;2022-09-09T07:31:25;18.20;99.90
12957;DHT22;6543;48.836;10.092;2022-09-09T07:33:52;18.30;99.90
12957;DHT22;6543;48.836;10.092;2022-09-09T07:36:22;18.50;99.90
12957;DHT22;6543;48.836;10.092;2022-09-09T07:38:51;18.80;99.90
12957;DHT22;6543;48.836;10.092;2022-09-09T07:41:21;18.90;99.90
12957;DHT22;6543;48.836;10.092;2022-09-09T07:43:49;19.10;99.90
12957;DHT22;6543;48.836;10.092;2022-09-09T07:46:18;18.90;99.90
12957;DHT22;6543;48.836;10.092;2022-09-09T07:48:46;19.00;99.90
12957;DHT22;6543;48.836;10.092;2022-09-09T07:51:15;19.00;99.90
12957;DHT22;6543;48.836;10.092;2022-09-09T07:53:46;19.10;99.90
12957;DHT22;6543;48.836;10.092;2022-09-09T07:56:15;19.20;99.90
12957;DHT22;6543;48.836;10.092;2022-09-09T07:58:45;18.90;99.90
12957;DHT22;6543;48.836;10.092;2022-09-09T08:01:13;19.00;99.90
12957;DHT22;6543;48.836;10.092;2022-09-09T08:03:41;18.90;99.90
12957;DHT22;6543;48.836;10.092;2022-09-09T08:06:10;19.50;99.90
12957;DHT22;6543;48.836;10.092;2022-09-09T08:08:39;19.30;99.90
12957;DHT22;6543;48.836;10.092;2022-09-09T08:11:12;19.20;99.90
12957;DHT22;6543;48.836;10.092;2022-09-09T08:13:41;19.20;99.90
12957;DHT22;6543;48.836;10.092;2022-09-09T08:16:10;19.10;99.90
12957;DHT22;6543;48.836;10.092;2022-09-09T08:18:38;19.00;99.90
12957;DHT22;6543;48.836;10.092;2022-09-09T08:21:07;19.00;99.90
12957;DHT22;6543;48.836;10.092;2022-09-09T08:23:34;18.90;99.90
12957;DHT22;6543;48.836;10.092;2022-09-09T08:26:06;18.70;99.90
12957;DHT22;6543;48.836;10.092;2022-09-09T08:28:36;18.30;99.90
12957;DHT22;6543;48.836;10.092;2022-09-09T08:31:07;18.30;99.90
12957;DHT22;6543;48.836;10.092;2022-09-09T08:33:34;18.40;99.90
12957;DHT22;6543;48.836;10.092;2022-09-09T08:36:04;18.50;99.90
12957;DHT22;6543;48.836;10.092;2022-09-09T08:38:31;18.80;99.90
12957;DHT22;6543;48.836;10.092;2022-09-09T08:41:07;18.90;99.90
12957;DHT22;6543;48.836;10.092;2022-09-09T08:43:39;19.00;99.90
12957;DHT22;6543;48.836;10.092;2022-09-09T08:46:11;19.40;99.90
12957;DHT22;6543;48.836;10.092;2022-09-09T08:48:47;19.70;99.90
12957;DHT22;6543;48.836;10.092;2022-09-09T08:51:19;19.60;99.90
12957;DHT22;6543;48.836;10.092;2022-09-09T08:53:49;19.90;99.90
12957;DHT22;6543;48.836;10.092;2022-09-09T08:56:21;19.60;99.90
12957;DHT22;6543;48.836;10.092;2022-09-09T08:58:52;19.50;99.90
12957;DHT22;6543;48.836;10.092;2022-09-09T09:01:39;19.50;99.90
12957;DHT22;6543;48.836;10.092;2022-09-09T09:04:15;19.30;99.90
12957;DHT22;6543;48.836;10.092;2022-09-09T09:06:53;19.30;99.90
12957;DHT22;6543;48.836;10.092;2022-09-09T09:09:25;19.10;99.90
12957;DHT22;6543;48.836;10.092;2022-09-09T09:11:55;18.80;99.90
12957;DHT22;6543;48.836;10.092;2022-09-09T09:14:29;18.80;99.90
12957;DHT22;6543;48.836;10.092;2022-09-09T09:16:58;18.90;99.90
12957;DHT22;6543;48.836;10.092;2022-09-09T09:19:27;19.20;99.90
12957;DHT22;6543;48.836;10.092;2022-09-09T09:22:01;19.40;99.90
12957;DHT22;6543;48.836;10.092;2022-09-09T09:24:38;19.10;99.90
12957;DHT22;6543;48.836;10.092;2022-09-09T09:27:16;18.90;99.90
12957;DHT22;6543;48.836;10.092;2022-09-09T09:29:48;18.90;99.90
12957;DHT22;6543;48.836;10.092;2022-09-09T09:32:18;19.20;99.90
12957;DHT22;6543;48.836;10.092;2022-09-09T09:34:49;19.60;99.90
12957;DHT22;6543;48.836;10.092;2022-09-09T09:37:18;19.70;99.90
12957;DHT22;6543;48.836;10.092;2022-09-09T09:39:47;19.70;99.90
12957;DHT22;6543;48.836;10.092;2022-09-09T09:42:16;19.50;99.90
12957;DHT22;6543;48.836;10.092;2022-09-09T09:44:45;19.90;99.90
12957;DHT22;6543;48.836;10.092;2022-09-09T09:47:13;20.20;99.90
12957;DHT22;6543;48.836;10.092;2022-09-09T09:49:51;20.50;99.90
12957;DHT22;6543;48.836;10.092;2022-09-09T09:52:21;20.60;99.90
12957;DHT22;6543;48.836;10.092;2022-09-09T09:54:50;22.90;99.90
12957;DHT22;6543;48.836;10.092;2022-09-09T09:57:18;20.70;99.90
12957;DHT22;6543;48.836;10.092;2022-09-09T10:00:00;20.70;99.90
12957;DHT22;6543;48.836;10.092;2022-09-09T10:02:38;20.80;99.90
12957;DHT22;6543;48.836;10.092;2022-09-09T10:05:13;20.90;99.90
12957;DHT22;6543;48.836;10.092;2022-09-09T10:07:40;20.80;99.90
12957;DHT22;6543;48.836;10.092;2022-09-09T10:10:12;22.10;99.90
12957;DHT22;6543;48.836;10.092;2022-09-09T10:12:47;21.30;99.90
12957;DHT22;6543;48.836;10.092;2022-09-09T10:15:31;22.70;99.90
12957;DHT22;6543;48.836;10.092;2022-09-09T10:18:08;21.10;99.90
12957;DHT22;6543;48.836;10.092;2022-09-09T10:20:43;21.20;99.90
12957;DHT22;6543;48.836;10.092;2022-09-09T10:23:22;21.10;99.90
12957;DHT22;6543;48.836;10.092;2022-09-09T10:26:02;20.90;99.90
12957;DHT22;6543;48.836;10.092;2022-09-09T10:28:54;20.90;99.90
12957;DHT22;6543;48.836;10.092;2022-09-09T10:31:34;21.20;99.90
12957;DHT22;6543;48.836;10.092;2022-09-09T10:34:16;21.50;99.90
12957;DHT22;6543;48.836;10.092;2022-09-09T10:36:48;21.40;99.90
12957;DHT22;6543;48.836;10.092;2022-09-09T10:39:28;21.10;99.90
12957;DHT22;6543;48.836;10.092;2022-09-09T10:42:03;20.90;99.90
12957;DHT22;6543;48.836;10.092;2022-09-09T10:44:43;21.00;99.90
12957;DHT22;6543;48.836;10.092;2022-09-09T10:47:35;21.00;99.90
12957;DHT22;6543;48.836;10.092;2022-09-09T10:50:29;20.80;99.90
12957;DHT22;6543;48.836;10.092;2022-09-09T10:53:02;21.60;99.90
12957;DHT22;6543;48.836;10.092;2022-09-09T10:55:37;21.30;99.90
12957;DHT22;6543;48.836;10.092;2022-09-09T10:58:10;21.30;99.90
12957;DHT22;6543;48.836;10.092;2022-09-09T11:00:40;21.80;99.90
12957;DHT22;6543;48.836;10.092;2022-09-09T11:03:15;21.90;99.90
12957;DHT22;6543;48.836;10.092;2022-09-09T11:05:47;22.10;99.90
12957;DHT22;6543;48.836;10.092;2022-09-09T11:08:19;22.00;99.90
12957;DHT22;6543;48.836;10.092;2022-09-09T11:10:50;22.10;99.90
12957;DHT22;6543;48.836;10.092;2022-09-09T11:13:27;22.30;99.90
12957;DHT22;6543;48.836;10.092;2022-09-09T11:16:01;22.30;99.90
12957;DHT22;6543;48.836;10.092;2022-09-09T11:18:37;22.00;99.90
12957;DHT22;6543;48.836;10.092;2022-09-09T11:21:11;20.90;99.90
12957;DHT22;6543;48.836;10.092;2022-09-09T11:23:46;21.50;99.90
12957;DHT22;6543;48.836;10.092;2022-09-09T11:26:20;21.10;99.90
12957;DHT22;6543;48.836;10.092;2022-09-09T11:28:57;20.90;99.90
12957;DHT22;6543;48.836;10.092;2022-09-09T11:31:43;20.70;99.90
12957;DHT22;6543;48.836;10.092;2022-09-09T11:34:23;20.70;99.90
12957;DHT22;6543;48.836;10.092;2022-09-09T11:37:06;20.70;99.90
12957;DHT22;6543;48.836;10.092;2022-09-09T11:39:49;21.00;99.90
12957;DHT22;6543;48.836;10.092;2022-09-09T11:42:24;21.50;99.90
12957;DHT22;6543;48.836;10.092;2022-09-09T11:44:52;21.90;99.90
12957;DHT22;6543;48.836;10.092;2022-09-09T11:47:23;22.20;99.90
12957;DHT22;6543;48.836;10.092;2022-09-09T11:50:07;22.10;99.90
12957;DHT22;6543;48.836;10.092;2022-09-09T11:52:39;22.30;99.90
12957;DHT22;6543;48.836;10.092;2022-09-09T11:55:19;22.50;99.90
12957;DHT22;6543;48.836;10.092;2022-09-09T11:57:57;23.00;99.90
12957;DHT22;6543;48.836;10.092;2022-09-09T12:00:34;23.50;99.90
12957;DHT22;6543;48.836;10.092;2022-09-09T12:03:03;23.70;99.90
12957;DHT22;6543;48.836;10.092;2022-09-09T12:05:40;23.70;99.90
12957;DHT22;6543;48.836;10.092;2022-09-09T12:08:09;23.60;99.90
12957;DHT22;6543;48.836;10.092;2022-09-09T12:10:39;23.60;99.90
12957;DHT22;6543;48.836;10.092;2022-09-09T12:13:16;23.60;99.90
12957;DHT22;6543;48.836;10.092;2022-09-09T12:15:48;23.40;99.90
12957;DHT22;6543;48.836;10.092;2022-09-09T12:18:22;23.30;99.90
12957;DHT22;6543;48.836;10.092;2022-09-09T12:20:57;23.40;99.90
12957;DHT22;6543;48.836;10.092;2022-09-09T12:23:32;23.60;99.90
12957;DHT22;6543;48.836;10.092;2022-09-09T12:26:08;23.60;99.90
12957;DHT22;6543;48.836;10.092;2022-09-09T12:28:47;23.70;99.90
12957;DHT22;6543;48.836;10.092;2022-09-09T12:31:22;23.70;99.90
12957;DHT22;6543;48.836;10.092;2022-09-09T12:33:52;23.90;99.90
12957;DHT22;6543;48.836;10.092;2022-09-09T12:36:23;24.00;99.90
12957;DHT22;6543;48.836;10.092;2022-09-09T12:38:51;23.80;99.90
12957;DHT22;6543;48.836;10.092;2022-09-09T12:41:20;23.20;99.90
12957;DHT22;6543;48.836;10.092;2022-09-09T12:43:48;23.50;99.90
12957;DHT22;6543;48.836;10.092;2022-09-09T12:46:22;23.40;99.90
12957;DHT22;6543;48.836;10.092;2022-09-09T12:48:53;22.70;99.90
12957;DHT22;6543;48.836;10.092;2022-09-09T12:51:26;22.30;99.90
12957;DHT22;6543;48.836;10.092;2022-09-09T12:53:54;20.60;99.90
12957;DHT22;6543;48.836;10.092;2022-09-09T12:56:22;20.30;99.90
12957;DHT22;6543;48.836;10.092;2022-09-09T12:58:53;20.20;99.90
12957;DHT22;6543;48.836;10.092;2022-09-09T13:01:22;19.90;99.90
12957;DHT22;6543;48.836;10.092;2022-09-09T13:03:49;20.30;99.90
12957;DHT22;6543;48.836;10.092;2022-09-09T13:06:23;20.30;99.90
12957;DHT22;6543;48.836;10.092;2022-09-09T13:08:50;19.50;99.90
12957;DHT22;6543;48.836;10.092;2022-09-09T13:11:19;19.40;99.90
12957;DHT22;6543;48.836;10.092;2022-09-09T13:13:52;19.50;99.90
12957;DHT22;6543;48.836;10.092;2022-09-09T13:16:22;19.50;99.90
12957;DHT22;6543;48.836;10.092;2022-09-09T13:18:50;19.60;99.90
12957;DHT22;6543;48.836;10.092;2022-09-09T13:21:17;20.10;99.90
12957;DHT22;6543;48.836;10.092;2022-09-09T13:23:50;20.80;99.90
12957;DHT22;6543;48.836;10.092;2022-09-09T13:26:22;20.30;99.90
12957;DHT22;6543;48.836;10.092;2022-09-09T13:28:50;20.10;99.90
12957;DHT22;6543;48.836;10.092;2022-09-09T13:31:23;20.10;99.90
12957;DHT22;6543;48.836;10.092;2022-09-09T13:33:52;20.10;99.90
12957;DHT22;6543;48.836;10.092;2022-09-09T13:36:28;19.70;99.90
12957;DHT22;6543;48.836;10.092;2022-09-09T13:38:58;19.50;99.90
12957;DHT22;6543;48.836;10.092;2022-09-09T13:41:29;19.40;99.90
12957;DHT22;6543;48.836;10.092;2022-09-09T13:43:57;19.80;99.90
12957;DHT22;6543;48.836;10.092;2022-09-09T13:46:32;19.70;99.90
12957;DHT22;6543;48.836;10.092;2022-09-09T13:49:00;20.10;99.90
12957;DHT22;6543;48.836;10.092;2022-09-09T13:51:35;20.60;99.90
12957;DHT22;6543;48.836;10.092;2022-09-09T13:54:04;20.50;99.90
12957;DHT22;6543;48.836;10.092;2022-09-09T13:56:32;20.60;99.90
12957;DHT22;6543;48.836;10.092;2022-09-09T14:01:26;20.50;99.90
12957;DHT22;6543;48.836;10.092;2022-09-09T14:03:54;20.50;99.90
12957;DHT22;6543;48.836;10.092;2022-09-09T14:06:21;21.20;99.90
12957;DHT22;6543;48.836;10.092;2022-09-09T14:08:49;20.40;99.90
12957;DHT22;6543;48.836;10.092;2022-09-09T14:11:18;20.60;99.90
12957;DHT22;6543;48.836;10.092;2022-09-09T14:13:47;20.60;99.90
12957;DHT22;6543;48.836;10.092;2022-09-09T14:16:15;20.90;99.90
12957;DHT22;6543;48.836;10.092;2022-09-09T14:18:42;20.70;99.90
12957;DHT22;6543;48.836;10.092;2022-09-09T14:21:10;21.10;99.90
12957;DHT22;6543;48.836;10.092;2022-09-09T14:23:37;21.20;99.90
12957;DHT22;6543;48.836;10.092;2022-09-09T14:26:04;20.90;99.90
12957;DHT22;6543;48.836;10.092;2022-09-09T14:28:33;20.80;99.90
12957;DHT22;6543;48.836;10.092;2022-09-09T14:31:00;19.60;99.90
12957;DHT22;6543;48.836;10.092;2022-09-09T14:33:28;20.90;99.90
12957;DHT22;6543;48.836;10.092;2022-09-09T14:35:56;20.70;99.90
12957;DHT22;6543;48.836;10.092;2022-09-09T14:38:23;20.60;99.90
12957;DHT22;6543;48.836;10.092;2022-09-09T14:40:50;20.70;99.90
12957;DHT22;6543;48.836;10.092;2022-09-09T14:43:17;20.60;99.90
12957;DHT22;6543;48.836;10.092;2022-09-09T14:45:45;20.80;99.90
12957;DHT22;6543;48.836;10.092;2022-09-09T14:48:13;20.90;99.90
12957;DHT22;6543;48.836;10.092;2022-09-09T14:50:41;21.10;99.90
12957;DHT22;6543;48.836;10.092;2022-09-09T14:53:08;21.20;99.90
12957;DHT22;6543;48.836;10.092;2022-09-09T14:55:36;21.20;99.90
12957;DHT22;6543;48.836;10.092;2022-09-09T14:58:03;21.30;99.90
12957;DHT22;6543;48.836;10.092;2022-09-09T15:00:31;20.80;99.90
12957;DHT22;6543;48.836;10.092;2022-09-09T15:02:59;21.00;99.90
12957;DHT22;6543;48.836;10.092;2022-09-09T15:05:26;20.70;99.90
12957;DHT22;6543;48.836;10.092;2022-09-09T15:07:53;20.80;99.90
12957;DHT22;6543;48.836;10.092;2022-09-09T15:10:20;20.60;99.90
12957;DHT22;6543;48.836;10.092;2022-09-09T15:12:47;20.50;99.90
12957;DHT22;6543;48.836;10.092;2022-09-09T15:15:14;20.50;99.90
12957;DHT22;6543;48.836;10.092;2022-09-09T15:17:41;20.50;99.90
12957;DHT22;6543;48.836;10.092;2022-09-09T15:20:10;20.50;99.90
12957;DHT22;6543;48.836;10.092;2022-09-09T15:22:37;19.60;99.90
12957;DHT22;6543;48.836;10.092;2022-09-09T15:25:04;20.60;99.90
12957;DHT22;6543;48.836;10.092;2022-09-09T15:27:33;20.50;99.90
12957;DHT22;6543;48.836;10.092;2022-09-09T15:30:00;20.60;99.90
12957;DHT22;6543;48.836;10.092;2022-09-09T15:32:27;20.70;99.90
12957;DHT22;6543;48.836;10.092;2022-09-09T15:34:54;20.70;99.90
12957;DHT22;6543;48.836;10.092;2022-09-09T15:37:23;20.80;99.90
12957;DHT22;6543;48.836;10.092;2022-09-09T15:39:49;20.90;99.90
12957;DHT22;6543;48.836;10.092;2022-09-09T15:42:16;21.00;99.90
12957;DHT22;6543;48.836;10.092;2022-09-09T15:44:44;20.80;99.90
12957;DHT22;6543;48.836;10.092;2022-09-09T15:47:12;20.70;99.90
12957;DHT22;6543;48.836;10.092;2022-09-09T15:49:40;20.50;99.90
12957;DHT22;6543;48.836;10.092;2022-09-09T15:52:10;20.60;99.90
12957;DHT22;6543;48.836;10.092;2022-09-09T15:54:38;20.70;99.90
12957;DHT22;6543;48.836;10.092;2022-09-09T15:57:07;20.70;99.90
12957;DHT22;6543;48.836;10.092;2022-09-09T15:59:35;20.90;99.90